Time;durP1;ratioP1;P1;durP2;ratioP2;P2;SDS_P1;SDS_P2;PMS_P1;PMS_P2;Temp;Humidity;BMP_temperature;BMP_pressure;BME280_temperature;BME280_humidity;BME280_pressure;Samples;Min_cycle;Max_cycle;Signal;HPM_P1;HPM_P2
2023/12/18 00:00:28;;;;;;;3.03;1.53;;;1.40;99.90;;;;;;2070930;28;20321;-79
2023/12/18 00:01:29;;;;;;;2.80;1.33;;;1.30;99.90;;;;;;2039157;29;20239;-78
2023/12/18 00:02:30;;;;;;;1.60;1.13;;;1.40;99.90;;;;;;2038849;29;20270;-80
2023/12/18 00:03:30;;;;;;;1.40;1.13;;;1.30;99.90;;;;;;2038434;28;20238;-79
2023/12/18 00:04:31;;;;;;;2.93;1.70;;;1.40;99.90;;;;;;2031373;29;20228;-79
2023/12/18 00:05:32;;;;;;;2.13;1.40;;;1.40;99.90;;;;;;2023232;28;20229;-80
2023/12/18 00:06:32;;;;;;;1.63;1.30;;;1.40;99.90;;;;;;2038548;29;20375;-80
2023/12/18 00:07:33;;;;;;;2.17;1.20;;;1.40;99.90;;;;;;2031453;28;20746;-79
2023/12/18 00:08:34;;;;;;;1.50;1.40;;;1.40;99.90;;;;;;2031322;29;20273;-79
2023/12/18 00:09:34;;;;;;;2.23;1.30;;;1.40;99.90;;;;;;2029413;28;20237;-79
2023/12/18 00:10:35;;;;;;;2.00;1.40;;;1.40;99.90;;;;;;2029739;28;20755;-79
2023/12/18 00:11:36;;;;;;;2.03;1.33;;;1.40;99.90;;;;;;2038560;29;20602;-80
2023/12/18 00:12:36;;;;;;;1.50;1.30;;;1.40;99.90;;;;;;2037465;28;20242;-79
2023/12/18 00:13:37;;;;;;;4.57;1.67;;;1.40;99.90;;;;;;2032248;28;20230;-79
2023/12/18 00:14:38;;;;;;;2.80;1.50;;;1.40;99.90;;;;;;2041393;29;20234;-80
2023/12/18 00:15:38;;;;;;;1.67;1.33;;;1.30;99.90;;;;;;2038771;29;20292;-80
2023/12/18 00:16:39;;;;;;;1.60;1.30;;;1.30;99.90;;;;;;2031171;28;20225;-80
2023/12/18 00:17:40;;;;;;;2.53;1.50;;;1.30;99.90;;;;;;2031229;28;20232;-79
2023/12/18 00:18:40;;;;;;;1.63;1.27;;;1.30;99.90;;;;;;2039174;28;20226;-79
2023/12/18 00:19:41;;;;;;;2.07;1.50;;;1.30;99.90;;;;;;2039107;28;20234;-78
2023/12/18 00:20:42;;;;;;;1.58;1.25;;;1.30;99.90;;;;;;2031349;29;20233;-80
2023/12/18 00:21:43;;;;;;;1.87;1.53;;;1.20;99.90;;;;;;2039168;29;20232;-78
2023/12/18 00:22:43;;;;;;;2.63;1.30;;;1.20;99.90;;;;;;2029718;29;20225;-79
2023/12/18 00:23:44;;;;;;;1.30;1.20;;;1.30;99.90;;;;;;2023285;29;20227;-80
2023/12/18 00:24:45;;;;;;;1.80;1.30;;;1.30;99.90;;;;;;2049667;28;20663;-80
2023/12/18 00:25:45;;;;;;;2.13;1.20;;;1.30;99.90;;;;;;2030851;28;20231;-79
2023/12/18 00:26:46;;;;;;;2.67;1.60;;;1.30;99.90;;;;;;2028831;28;20229;-79
2023/12/18 00:27:47;;;;;;;1.30;0.97;;;1.30;99.90;;;;;;2045921;28;20342;-80
2023/12/18 00:28:47;;;;;;;1.10;1.00;;;1.30;99.90;;;;;;2038880;29;20496;-79
2023/12/18 00:29:48;;;;;;;1.57;1.30;;;1.30;99.90;;;;;;2038063;29;20262;-80
2023/12/18 00:30:49;;;;;;;1.37;0.83;;;1.40;99.90;;;;;;2039077;28;20727;-80
2023/12/18 00:31:49;;;;;;;0.70;0.70;;;1.30;99.90;;;;;;2036347;29;20220;-79
2023/12/18 00:32:50;;;;;;;1.40;0.90;;;1.30;99.90;;;;;;2030654;28;20654;-80
2023/12/18 00:33:51;;;;;;;1.00;0.90;;;1.40;99.90;;;;;;2031130;28;20233;-80
2023/12/18 00:34:51;;;;;;;1.00;0.80;;;1.40;99.90;;;;;;2034143;28;20230;-79
2023/12/18 00:35:52;;;;;;;1.10;0.90;;;1.40;99.90;;;;;;2035114;29;20233;-79
2023/12/18 00:36:53;;;;;;;1.00;0.80;;;1.30;99.90;;;;;;2038508;28;20231;-78
2023/12/18 00:37:54;;;;;;;1.30;0.90;;;1.30;99.90;;;;;;2046313;28;20262;-78
2023/12/18 00:38:54;;;;;;;1.15;0.80;;;1.20;99.90;;;;;;2051084;28;20277;-78
2023/12/18 00:39:55;;;;;;;1.97;1.30;;;1.30;99.90;;;;;;2044092;28;20233;-77
2023/12/18 00:40:56;;;;;;;1.93;1.00;;;1.40;99.90;;;;;;2034955;29;20243;-76
2023/12/18 00:41:57;;;;;;;1.03;0.93;;;1.40;99.90;;;;;;2040305;28;20235;-78
2023/12/18 00:42:58;;;;;;;0.93;0.67;;;1.40;99.90;;;;;;2039477;28;20479;-79
2023/12/18 00:43:58;;;;;;;0.87;0.73;;;1.40;99.90;;;;;;2046127;29;20709;-79
2023/12/18 00:44:59;;;;;;;1.87;0.80;;;1.30;99.90;;;;;;2047220;28;20281;-79
2023/12/18 00:46:03;;;;;;;1.70;1.00;;;1.20;99.90;;;;;;2038876;29;20270;-78
2023/12/18 00:47:04;;;;;;;2.70;0.80;;;1.30;99.90;;;;;;2033283;28;20296;-79
2023/12/18 00:48:05;;;;;;;0.93;0.83;;;1.20;99.90;;;;;;2038762;28;20928;-78
2023/12/18 00:49:06;;;;;;;0.60;0.60;;;1.30;99.90;;;;;;2033421;29;20280;-78
2023/12/18 00:50:09;;;;;;;0.67;0.67;;;1.20;99.90;;;;;;2032515;29;20693;-78
2023/12/18 00:51:11;;;;;;;1.08;0.77;;;1.20;99.90;;;;;;2038915;29;20216;-78
2023/12/18 00:52:12;;;;;;;0.63;0.63;;;1.30;99.90;;;;;;2027257;28;20624;-79
2023/12/18 00:53:16;;;;;;;0.60;0.60;;;1.20;99.90;;;;;;2071588;28;20183;-79
2023/12/18 00:54:16;;;;;;;1.13;0.65;;;1.20;99.90;;;;;;2038655;29;20204;-80
2023/12/18 00:55:17;;;;;;;0.60;0.60;;;1.20;99.90;;;;;;2038695;29;20225;-79
2023/12/18 00:56:18;;;;;;;1.73;0.70;;;1.20;99.90;;;;;;2030112;28;20254;-79
2023/12/18 00:57:19;;;;;;;0.82;0.77;;;1.30;99.90;;;;;;2030570;29;20185;-79
2023/12/18 00:58:20;;;;;;;1.80;0.77;;;1.30;99.90;;;;;;2046125;28;20187;-79
2023/12/18 00:59:21;;;;;;;2.10;0.80;;;1.30;99.90;;;;;;2036968;28;20185;-80
2023/12/18 01:00:22;;;;;;;0.90;0.70;;;1.30;99.90;;;;;;2022896;28;20186;-79
2023/12/18 01:01:22;;;;;;;0.73;0.60;;;1.30;99.90;;;;;;2030536;29;20243;-80
2023/12/18 01:02:23;;;;;;;2.53;0.60;;;1.40;99.90;;;;;;2038567;28;20232;-81
2023/12/18 01:03:24;;;;;;;1.07;0.60;;;1.30;99.90;;;;;;2038655;28;20294;-79
2023/12/18 01:04:24;;;;;;;0.50;0.50;;;1.40;99.90;;;;;;2038808;28;20239;-79
2023/12/18 01:05:25;;;;;;;0.50;0.50;;;1.30;99.90;;;;;;2028477;28;20889;-78
2023/12/18 01:06:26;;;;;;;1.03;0.80;;;1.30;99.90;;;;;;2030155;29;20235;-80
2023/12/18 01:07:29;;;;;;;0.90;0.80;;;1.40;99.90;;;;;;2023005;29;20237;-79
2023/12/18 01:08:30;;;;;;;0.60;0.60;;;1.40;99.90;;;;;;2036001;29;20241;-78
2023/12/18 01:09:31;;;;;;;1.13;0.70;;;1.40;99.90;;;;;;2044451;28;20268;-80
2023/12/18 01:10:31;;;;;;;0.57;0.57;;;1.40;99.90;;;;;;2038233;28;20305;-79
2023/12/18 01:11:32;;;;;;;0.63;0.60;;;1.40;99.90;;;;;;2046669;28;20238;-80
2023/12/18 01:12:33;;;;;;;0.80;0.70;;;1.40;99.90;;;;;;2043426;28;20236;-80
2023/12/18 01:13:33;;;;;;;0.70;0.60;;;1.30;99.90;;;;;;2038698;29;20232;-79
2023/12/18 01:14:34;;;;;;;0.80;0.77;;;1.30;99.90;;;;;;2040176;29;20267;-80
2023/12/18 01:15:35;;;;;;;0.70;0.60;;;1.40;99.90;;;;;;2040144;29;20320;-78
2023/12/18 01:16:35;;;;;;;0.50;0.50;;;1.40;99.90;;;;;;2044022;28;20649;-77
2023/12/18 01:17:36;;;;;;;0.53;0.53;;;1.40;99.90;;;;;;2031220;28;20272;-80
2023/12/18 01:18:37;;;;;;;1.20;0.80;;;1.30;99.90;;;;;;2030523;28;20570;-80
2023/12/18 01:19:37;;;;;;;0.83;0.77;;;1.30;99.90;;;;;;2038572;29;20241;-80
2023/12/18 01:20:38;;;;;;;0.43;0.43;;;1.30;99.90;;;;;;2030431;28;20334;-80
2023/12/18 01:21:39;;;;;;;0.60;0.57;;;1.30;99.90;;;;;;2033704;28;20246;-80
2023/12/18 01:22:40;;;;;;;0.50;0.50;;;1.30;99.90;;;;;;2028248;28;20241;-80
2023/12/18 01:23:40;;;;;;;0.50;0.50;;;1.30;99.90;;;;;;2032238;28;20250;-79
2023/12/18 01:24:41;;;;;;;0.90;0.50;;;1.30;99.90;;;;;;2030964;28;20775;-79
2023/12/18 01:25:42;;;;;;;1.23;0.60;;;1.20;99.90;;;;;;2044156;28;20299;-79
2023/12/18 01:26:43;;;;;;;0.60;0.50;;;1.20;99.90;;;;;;2039077;28;20580;-80
2023/12/18 01:27:43;;;;;;;0.80;0.60;;;1.30;99.90;;;;;;2030924;29;20233;-80
2023/12/18 01:28:44;;;;;;;1.60;0.90;;;1.30;99.90;;;;;;2037861;29;20743;-80
2023/12/18 01:29:45;;;;;;;1.60;0.90;;;1.30;99.90;;;;;;2038986;29;20319;-78
2023/12/18 01:30:45;;;;;;;0.97;0.87;;;1.30;99.90;;;;;;2038149;29;20265;-78
2023/12/18 01:31:46;;;;;;;0.77;0.77;;;1.30;99.90;;;;;;2037796;29;20248;-78
2023/12/18 01:32:47;;;;;;;1.27;0.50;;;1.30;99.90;;;;;;2030996;28;21843;-79
2023/12/18 01:33:48;;;;;;;0.50;0.50;;;1.30;99.90;;;;;;2030856;28;20243;-79
2023/12/18 01:34:49;;;;;;;1.55;0.85;;;1.30;99.90;;;;;;2031092;29;20252;-80
2023/12/18 01:35:49;;;;;;;0.50;0.50;;;1.40;99.90;;;;;;2037905;29;20810;-80
2023/12/18 01:36:50;;;;;;;0.43;0.43;;;1.30;99.90;;;;;;2076107;28;20354;-79
2023/12/18 01:37:51;;;;;;;0.80;0.70;;;1.30;99.90;;;;;;2042367;28;20260;-80
2023/12/18 01:38:51;;;;;;;0.50;0.50;;;1.30;99.90;;;;;;2030390;29;20234;-80
2023/12/18 01:39:52;;;;;;;0.40;0.40;;;1.30;99.90;;;;;;2023067;29;20245;-79
2023/12/18 01:40:53;;;;;;;0.50;0.50;;;1.30;99.90;;;;;;2030346;28;20735;-80
2023/12/18 01:41:53;;;;;;;0.63;0.40;;;1.40;99.90;;;;;;2038217;29;20234;-79
2023/12/18 01:42:54;;;;;;;0.70;0.70;;;1.40;99.90;;;;;;2030730;28;20272;-78
2023/12/18 01:43:55;;;;;;;0.47;0.47;;;1.40;99.90;;;;;;2022476;29;20259;-80
2023/12/18 01:44:56;;;;;;;0.40;0.40;;;1.40;99.90;;;;;;2038390;29;20230;-80
2023/12/18 01:45:59;;;;;;;0.40;0.40;;;1.40;99.90;;;;;;2051723;28;20246;-80
2023/12/18 01:47:00;;;;;;;0.40;0.40;;;1.40;99.90;;;;;;2022802;29;20231;-80
2023/12/18 01:48:01;;;;;;;0.50;0.50;;;1.30;99.90;;;;;;2038778;28;20705;-80
2023/12/18 01:49:02;;;;;;;0.77;0.60;;;1.30;99.90;;;;;;2046477;29;20228;-80
2023/12/18 01:50:05;;;;;;;1.05;0.40;;;1.30;99.90;;;;;;2036764;29;20706;-80
2023/12/18 01:51:06;;;;;;;0.57;0.57;;;1.30;99.90;;;;;;2031310;28;20696;-80
2023/12/18 01:52:07;;;;;;;0.57;0.50;;;1.30;99.90;;;;;;2046303;28;20184;-78
2023/12/18 01:53:08;;;;;;;1.35;0.80;;;1.20;99.90;;;;;;2039265;28;20277;-78
2023/12/18 01:54:09;;;;;;;0.63;0.60;;;1.20;99.90;;;;;;2039778;29;20668;-78
2023/12/18 01:55:13;;;;;;;0.98;0.70;;;1.20;99.90;;;;;;2031772;28;20193;-77
2023/12/18 01:56:15;;;;;;;0.40;0.40;;;1.20;99.90;;;;;;2031527;29;20224;-80
2023/12/18 01:57:19;;;;;;;0.40;0.40;;;1.30;99.90;;;;;;2038812;29;20759;-80
2023/12/18 01:58:20;;;;;;;0.60;0.60;;;1.20;99.90;;;;;;2046592;29;20192;-79
2023/12/18 01:59:22;;;;;;;0.53;0.50;;;1.20;99.90;;;;;;2072144;28;20623;-79
2023/12/18 02:00:23;;;;;;;0.40;0.40;;;1.30;99.90;;;;;;2070770;28;20659;-79
2023/12/18 02:01:23;;;;;;;0.40;0.40;;;1.30;99.90;;;;;;2030607;28;20234;-79
2023/12/18 02:02:25;;;;;;;0.30;0.30;;;1.20;99.90;;;;;;2034917;29;20232;-79
2023/12/18 02:03:29;;;;;;;0.70;0.50;;;1.30;99.90;;;;;;2036482;29;20253;-80
2023/12/18 02:04:30;;;;;;;0.40;0.40;;;1.30;99.90;;;;;;2025546;29;20754;-80
2023/12/18 02:05:31;;;;;;;0.95;0.50;;;1.30;99.90;;;;;;2039496;29;20797;-79
2023/12/18 02:06:32;;;;;;;0.40;0.40;;;1.30;99.90;;;;;;2029738;28;20289;-80
2023/12/18 02:07:34;;;;;;;0.40;0.40;;;1.30;99.90;;;;;;2071192;28;20262;-80
2023/12/18 02:08:35;;;;;;;0.40;0.32;;;1.30;99.90;;;;;;2029458;28;20234;-80
2023/12/18 02:09:36;;;;;;;0.63;0.63;;;1.40;99.90;;;;;;2027629;29;20366;-79
2023/12/18 02:10:37;;;;;;;0.50;0.50;;;1.40;99.90;;;;;;2037741;29;20723;-80
2023/12/18 02:11:43;;;;;;;0.40;0.40;;;1.40;99.90;;;;;;2038116;28;20233;-79
2023/12/18 02:12:43;;;;;;;0.63;0.40;;;1.40;99.90;;;;;;2038041;28;20230;-80
2023/12/18 02:13:44;;;;;;;0.67;0.60;;;1.40;99.90;;;;;;2045875;29;20343;-80
2023/12/18 02:14:45;;;;;;;0.43;0.40;;;1.40;99.90;;;;;;2028603;29;20663;-79
2023/12/18 02:15:46;;;;;;;0.50;0.50;;;1.40;99.90;;;;;;2028830;29;20229;-79
2023/12/18 02:16:47;;;;;;;0.60;0.60;;;1.30;99.90;;;;;;2070441;28;20232;-80
2023/12/18 02:17:47;;;;;;;0.70;0.70;;;1.30;99.90;;;;;;2030515;28;20714;-80
2023/12/18 02:18:48;;;;;;;0.37;0.37;;;1.30;99.90;;;;;;2037216;29;20225;-80
2023/12/18 02:19:49;;;;;;;0.50;0.50;;;1.40;99.90;;;;;;2037377;29;20235;-80
2023/12/18 02:20:49;;;;;;;0.63;0.63;;;1.40;99.90;;;;;;2038294;29;20374;-80
2023/12/18 02:21:51;;;;;;;0.50;0.40;;;1.40;99.90;;;;;;2034534;28;20259;-80
2023/12/18 02:22:52;;;;;;;0.40;0.40;;;1.30;99.90;;;;;;2031121;28;20224;-80
2023/12/18 02:23:53;;;;;;;0.40;0.40;;;1.30;99.90;;;;;;2030498;29;20238;-80
2023/12/18 02:24:54;;;;;;;0.60;0.60;;;1.30;99.90;;;;;;2035267;28;20830;-80
2023/12/18 02:25:54;;;;;;;0.40;0.40;;;1.30;99.90;;;;;;2035471;29;20395;-80
2023/12/18 02:26:58;;;;;;;0.30;0.30;;;1.30;99.90;;;;;;2030711;28;20266;-79
2023/12/18 02:28:00;;;;;;;0.50;0.50;;;1.30;99.90;;;;;;2027756;28;20291;-80
2023/12/18 02:29:00;;;;;;;0.38;0.38;;;1.30;99.90;;;;;;2038899;28;20229;-80
2023/12/18 02:30:01;;;;;;;1.37;0.60;;;1.30;99.90;;;;;;2038211;29;20754;-79
2023/12/18 02:31:03;;;;;;;0.45;0.45;;;1.30;99.90;;;;;;2036539;28;20222;-80
2023/12/18 02:32:04;;;;;;;0.40;0.40;;;1.30;99.90;;;;;;2037316;29;20207;-80
2023/12/18 02:33:05;;;;;;;0.30;0.30;;;1.20;99.90;;;;;;2029757;28;20199;-79
2023/12/18 02:34:06;;;;;;;0.43;0.40;;;1.20;99.90;;;;;;2038256;28;20214;-80
2023/12/18 02:35:07;;;;;;;0.40;0.40;;;1.30;99.90;;;;;;2045333;29;20665;-80
2023/12/18 02:36:08;;;;;;;0.57;0.40;;;1.20;99.90;;;;;;2044673;28;20212;-80
2023/12/18 02:37:09;;;;;;;0.70;0.70;;;1.20;99.90;;;;;;2035676;28;20188;-80
2023/12/18 02:38:10;;;;;;;0.63;0.57;;;1.20;99.90;;;;;;2032627;28;20260;-79
2023/12/18 02:39:11;;;;;;;0.50;0.50;;;1.20;99.90;;;;;;2030512;29;20552;-80
2023/12/18 02:40:12;;;;;;;0.50;0.50;;;1.20;99.90;;;;;;2037209;29;20191;-79
2023/12/18 02:41:12;;;;;;;0.50;0.50;;;1.20;99.90;;;;;;2030252;28;20617;-80
2023/12/18 02:42:13;;;;;;;0.90;0.80;;;1.30;99.90;;;;;;2022480;28;20210;-80
2023/12/18 02:43:14;;;;;;;0.47;0.40;;;1.20;99.90;;;;;;2029823;28;20615;-80
2023/12/18 02:44:14;;;;;;;0.43;0.43;;;1.20;99.90;;;;;;2029664;28;20282;-80
2023/12/18 02:45:15;;;;;;;0.60;0.53;;;1.20;99.90;;;;;;2034488;28;20563;-80
2023/12/18 02:46:16;;;;;;;1.27;0.50;;;1.20;99.90;;;;;;2037800;28;20250;-80
2023/12/18 02:47:17;;;;;;;1.27;0.40;;;1.20;99.90;;;;;;2029703;29;20289;-80
2023/12/18 02:48:17;;;;;;;0.40;0.40;;;1.20;99.90;;;;;;2036040;28;20193;-79
2023/12/18 02:49:18;;;;;;;0.50;0.50;;;1.20;99.90;;;;;;2035318;29;20284;-80
2023/12/18 02:50:19;;;;;;;0.63;0.47;;;1.20;99.90;;;;;;2027015;29;20204;-80
2023/12/18 02:51:19;;;;;;;0.40;0.40;;;1.20;99.90;;;;;;2037684;29;20186;-79
2023/12/18 02:52:20;;;;;;;0.40;0.40;;;1.20;99.90;;;;;;2037141;29;20218;-80
2023/12/18 02:53:21;;;;;;;0.40;0.40;;;1.20;99.90;;;;;;2042745;29;20639;-79
2023/12/18 02:54:21;;;;;;;0.30;0.30;;;1.20;99.90;;;;;;2045607;29;20266;-79
2023/12/18 02:55:22;;;;;;;0.50;0.50;;;1.20;99.90;;;;;;2037591;29;20244;-80
2023/12/18 02:56:23;;;;;;;0.50;0.50;;;1.20;99.90;;;;;;2041974;28;20231;-80
2023/12/18 02:57:24;;;;;;;0.50;0.47;;;1.20;99.90;;;;;;2029059;29;20239;-79
2023/12/18 02:58:24;;;;;;;0.40;0.40;;;1.20;99.90;;;;;;2041467;28;20707;-80
2023/12/18 02:59:25;;;;;;;0.40;0.30;;;1.20;99.90;;;;;;2042599;29;20229;-80
2023/12/18 03:00:26;;;;;;;0.40;0.40;;;1.20;99.90;;;;;;2034905;28;20757;-80
2023/12/18 03:01:26;;;;;;;0.53;0.50;;;1.20;99.90;;;;;;2037507;29;20224;-80
2023/12/18 03:02:27;;;;;;;0.40;0.40;;;1.30;99.90;;;;;;2038354;28;20232;-80
2023/12/18 03:03:28;;;;;;;0.50;0.50;;;1.30;99.90;;;;;;2028565;28;20237;-79
2023/12/18 03:04:28;;;;;;;0.50;0.50;;;1.30;99.90;;;;;;2029680;29;20267;-80
2023/12/18 03:05:29;;;;;;;0.47;0.47;;;1.30;99.90;;;;;;2037196;29;20243;-80
2023/12/18 03:06:30;;;;;;;0.57;0.57;;;1.20;99.90;;;;;;2037416;28;20599;-79
2023/12/18 03:07:30;;;;;;;0.60;0.53;;;1.20;99.90;;;;;;2033293;28;20303;-80
2023/12/18 03:08:31;;;;;;;0.77;0.70;;;1.20;99.90;;;;;;2024020;29;20649;-80
2023/12/18 03:09:32;;;;;;;0.43;0.43;;;1.20;99.90;;;;;;2036589;28;20639;-80
2023/12/18 03:10:32;;;;;;;0.60;0.60;;;1.20;99.90;;;;;;2037347;28;20235;-80
2023/12/18 03:11:33;;;;;;;0.50;0.50;;;1.20;99.90;;;;;;2029933;28;20410;-79
2023/12/18 03:12:34;;;;;;;0.50;0.50;;;1.30;99.90;;;;;;2034936;28;20327;-78
2023/12/18 03:13:34;;;;;;;0.50;0.50;;;1.30;99.90;;;;;;2046098;29;20228;-80
2023/12/18 03:14:35;;;;;;;0.57;0.57;;;1.20;99.90;;;;;;2037680;29;20241;-80
2023/12/18 03:15:36;;;;;;;0.60;0.50;;;1.20;99.90;;;;;;2037566;29;20232;-79
2023/12/18 03:16:37;;;;;;;0.40;0.40;;;1.30;99.90;;;;;;2045080;29;20765;-79
2023/12/18 03:17:38;;;;;;;0.55;0.40;;;1.20;99.90;;;;;;2033983;28;20240;-79
2023/12/18 03:18:38;;;;;;;0.60;0.60;;;1.20;99.90;;;;;;2028549;29;20268;-78
2023/12/18 03:19:39;;;;;;;0.83;0.60;;;1.10;99.90;;;;;;2041613;29;20281;-79
2023/12/18 03:20:40;;;;;;;0.50;0.50;;;1.10;99.90;;;;;;2052040;28;20256;-79
2023/12/18 03:21:40;;;;;;;1.27;0.60;;;1.10;99.90;;;;;;2042881;29;20776;-80
2023/12/18 03:22:41;;;;;;;0.60;0.60;;;1.00;99.90;;;;;;2044541;29;20255;-79
2023/12/18 03:23:42;;;;;;;0.70;0.50;;;1.10;99.90;;;;;;2034404;29;20759;-79
2023/12/18 03:24:43;;;;;;;0.60;0.60;;;1.10;99.90;;;;;;2034704;29;20657;-79
2023/12/18 03:25:43;;;;;;;0.40;0.40;;;1.00;99.90;;;;;;2042894;28;20239;-80
2023/12/18 03:26:44;;;;;;;1.40;0.63;;;1.00;99.90;;;;;;2044500;28;20252;-78
2023/12/18 03:27:45;;;;;;;0.40;0.40;;;1.00;99.90;;;;;;2043149;28;20260;-78
2023/12/18 03:28:45;;;;;;;0.57;0.57;;;1.10;99.90;;;;;;2032972;28;20241;-81
2023/12/18 03:29:46;;;;;;;0.50;0.50;;;1.00;99.90;;;;;;2028857;28;20758;-78
2023/12/18 03:30:47;;;;;;;0.50;0.50;;;1.00;99.90;;;;;;2030158;29;20244;-80
2023/12/18 03:31:47;;;;;;;1.80;0.80;;;1.10;99.90;;;;;;2037399;29;20721;-80
2023/12/18 03:32:48;;;;;;;0.50;0.50;;;1.10;99.90;;;;;;2029644;29;20269;-80
2023/12/18 03:33:49;;;;;;;0.83;0.80;;;1.10;99.90;;;;;;2045238;28;20239;-81
2023/12/18 03:34:49;;;;;;;0.60;0.60;;;1.10;99.90;;;;;;2042949;28;20851;-80
2023/12/18 03:35:50;;;;;;;0.70;0.50;;;1.00;99.90;;;;;;2038331;28;20234;-79
2023/12/18 03:36:51;;;;;;;0.60;0.60;;;1.00;99.90;;;;;;2044865;29;20227;-80
2023/12/18 03:37:51;;;;;;;0.90;0.60;;;1.00;99.90;;;;;;2029538;29;20242;-80
2023/12/18 03:38:52;;;;;;;0.80;0.70;;;0.90;99.90;;;;;;2041712;28;20228;-80
2023/12/18 03:39:53;;;;;;;2.53;0.63;;;0.90;99.90;;;;;;2035395;28;20954;-80
2023/12/18 03:40:53;;;;;;;0.60;0.60;;;0.90;99.90;;;;;;2038622;29;20259;-80
2023/12/18 03:41:54;;;;;;;0.60;0.60;;;0.80;99.90;;;;;;2046678;29;20247;-80
2023/12/18 03:42:55;;;;;;;0.60;0.53;;;0.90;99.90;;;;;;2040399;28;20239;-80
2023/12/18 03:43:55;;;;;;;0.43;0.43;;;0.80;99.90;;;;;;2035267;28;20234;-80
2023/12/18 03:44:56;;;;;;;0.70;0.50;;;0.80;99.90;;;;;;2042702;29;20220;-80
2023/12/18 03:45:57;;;;;;;0.40;0.40;;;0.80;99.90;;;;;;2030731;28;20229;-80
2023/12/18 03:46:57;;;;;;;0.40;0.40;;;0.80;99.90;;;;;;2038632;29;20240;-80
2023/12/18 03:47:58;;;;;;;0.50;0.40;;;0.80;99.90;;;;;;2031427;28;20249;-79
2023/12/18 03:48:59;;;;;;;0.73;0.73;;;0.80;99.90;;;;;;2039391;29;20591;-80
2023/12/18 03:49:59;;;;;;;0.53;0.53;;;0.80;99.90;;;;;;2050506;28;20332;-80
2023/12/18 03:51:00;;;;;;;0.50;0.50;;;0.80;99.90;;;;;;2050794;28;20764;-80
2023/12/18 03:52:01;;;;;;;0.67;0.50;;;0.80;99.90;;;;;;2038820;29;20307;-80
2023/12/18 03:53:02;;;;;;;0.67;0.67;;;0.90;99.90;;;;;;2039191;29;20279;-80
2023/12/18 03:54:02;;;;;;;0.30;0.30;;;0.80;99.90;;;;;;2044690;29;20273;-79
2023/12/18 03:55:04;;;;;;;0.70;0.70;;;0.80;99.90;;;;;;2038213;28;20324;-79
2023/12/18 03:56:05;;;;;;;0.50;0.50;;;0.70;99.90;;;;;;2038383;29;20408;-79
2023/12/18 03:57:06;;;;;;;0.63;0.63;;;0.80;99.90;;;;;;2031384;28;20641;-80
2023/12/18 03:58:06;;;;;;;0.50;0.50;;;0.80;99.90;;;;;;2030965;29;20190;-79
2023/12/18 03:59:07;;;;;;;0.40;0.40;;;0.80;99.90;;;;;;2031338;28;20645;-81
2023/12/18 04:00:08;;;;;;;0.43;0.43;;;0.80;99.90;;;;;;2028945;28;20217;-80
2023/12/18 04:01:09;;;;;;;0.60;0.57;;;0.80;99.90;;;;;;2030824;28;20199;-80
2023/12/18 04:02:10;;;;;;;0.73;0.50;;;0.80;99.90;;;;;;2037464;29;20220;-80
2023/12/18 04:03:10;;;;;;;0.50;0.50;;;0.80;99.90;;;;;;2036447;28;20216;-80
2023/12/18 04:04:13;;;;;;;0.50;0.50;;;0.80;99.90;;;;;;2039079;29;20606;-80
2023/12/18 04:05:13;;;;;;;0.40;0.40;;;0.90;99.90;;;;;;2031070;28;20198;-80
2023/12/18 04:06:14;;;;;;;0.40;0.40;;;0.90;99.90;;;;;;2037589;28;20212;-80
2023/12/18 04:07:15;;;;;;;0.40;0.40;;;0.80;99.90;;;;;;2053339;28;20187;-79
2023/12/18 04:08:15;;;;;;;0.40;0.40;;;0.80;99.90;;;;;;2044986;28;20210;-79
2023/12/18 04:09:16;;;;;;;0.50;0.50;;;0.90;99.90;;;;;;2038422;28;20212;-80
2023/12/18 04:10:17;;;;;;;0.50;0.50;;;0.90;99.90;;;;;;2042351;28;20204;-79
2023/12/18 04:11:19;;;;;;;0.60;0.50;;;0.80;99.90;;;;;;2043237;28;20204;-79
2023/12/18 04:12:19;;;;;;;0.35;0.35;;;0.80;99.90;;;;;;2045384;29;20192;-80
2023/12/18 04:13:20;;;;;;;0.50;0.50;;;0.90;99.90;;;;;;2036962;29;20180;-80
2023/12/18 04:14:21;;;;;;;0.50;0.40;;;0.80;99.90;;;;;;2042398;29;20220;-79
2023/12/18 04:15:21;;;;;;;0.60;0.60;;;0.80;99.90;;;;;;2042567;28;20191;-80
2023/12/18 04:16:22;;;;;;;1.07;0.50;;;0.80;99.90;;;;;;2027194;28;20637;-80
2023/12/18 04:17:23;;;;;;;0.53;0.53;;;0.80;99.90;;;;;;2023289;29;20522;-78
2023/12/18 04:18:23;;;;;;;0.70;0.50;;;0.80;99.90;;;;;;2030758;29;20232;-80
2023/12/18 04:19:24;;;;;;;0.40;0.40;;;0.90;99.90;;;;;;2022079;29;20803;-79
2023/12/18 04:20:25;;;;;;;0.57;0.50;;;0.80;99.90;;;;;;2030799;29;20254;-80
2023/12/18 04:21:25;;;;;;;0.70;0.70;;;0.80;99.90;;;;;;2029695;29;20250;-80
2023/12/18 04:22:26;;;;;;;0.50;0.50;;;0.80;99.90;;;;;;2037287;29;20764;-80
2023/12/18 04:23:27;;;;;;;0.50;0.50;;;0.80;99.90;;;;;;2036322;28;20272;-80
2023/12/18 04:24:28;;;;;;;0.47;0.47;;;0.90;99.90;;;;;;2036748;29;20317;-79
2023/12/18 04:25:28;;;;;;;0.60;0.60;;;0.80;99.90;;;;;;2071607;28;20227;-79
2023/12/18 04:26:29;;;;;;;0.50;0.50;;;0.80;99.90;;;;;;2022336;29;20250;-80
2023/12/18 04:27:30;;;;;;;0.60;0.47;;;0.80;99.90;;;;;;2030806;29;20798;-80
2023/12/18 04:28:30;;;;;;;0.70;0.60;;;0.80;99.90;;;;;;2037646;29;20232;-80
2023/12/18 04:29:31;;;;;;;0.87;0.50;;;0.80;99.90;;;;;;2038488;28;20316;-80
2023/12/18 04:30:32;;;;;;;0.40;0.40;;;0.80;99.90;;;;;;2038336;29;20318;-80
2023/12/18 04:31:32;;;;;;;0.50;0.50;;;0.80;99.90;;;;;;2030084;29;20866;-80
2023/12/18 04:32:33;;;;;;;0.50;0.50;;;0.80;99.90;;;;;;2038030;29;20255;-80
2023/12/18 04:33:34;;;;;;;0.60;0.60;;;0.80;99.90;;;;;;2052472;28;20325;-79
2023/12/18 04:34:34;;;;;;;0.50;0.50;;;0.80;99.90;;;;;;2038937;28;20232;-80
2023/12/18 04:35:36;;;;;;;0.50;0.50;;;0.80;99.90;;;;;;2037026;28;20233;-78
2023/12/18 04:36:38;;;;;;;0.70;0.70;;;0.80;99.90;;;;;;2039923;28;20233;-80
2023/12/18 04:37:39;;;;;;;0.65;0.60;;;0.80;99.90;;;;;;2036870;28;20234;-80
2023/12/18 04:38:42;;;;;;;0.50;0.50;;;0.80;99.90;;;;;;2035769;29;20240;-80
2023/12/18 04:39:43;;;;;;;0.73;0.70;;;0.80;99.90;;;;;;2046030;29;20792;-79
2023/12/18 04:40:44;;;;;;;0.50;0.50;;;0.80;99.90;;;;;;2046483;28;20325;-80
2023/12/18 04:41:45;;;;;;;0.60;0.60;;;0.80;99.90;;;;;;2038572;28;20910;-81
2023/12/18 04:42:45;;;;;;;0.97;0.80;;;0.80;99.90;;;;;;2034621;29;20294;-79
2023/12/18 04:43:47;;;;;;;0.60;0.60;;;0.80;99.90;;;;;;2032155;29;20312;-82
2023/12/18 04:44:47;;;;;;;0.68;0.60;;;0.80;99.90;;;;;;2037920;28;20241;-81
2023/12/18 04:45:48;;;;;;;0.97;0.70;;;0.80;99.90;;;;;;2031673;28;20253;-81
2023/12/18 04:46:49;;;;;;;0.50;0.50;;;0.80;99.90;;;;;;2038186;28;20315;-81
2023/12/18 04:47:49;;;;;;;0.50;0.50;;;0.70;99.90;;;;;;2040594;28;20256;-82
2023/12/18 04:48:50;;;;;;;1.17;0.60;;;0.70;99.90;;;;;;2036058;28;20228;-81
2023/12/18 04:49:51;;;;;;;0.70;0.70;;;0.70;99.90;;;;;;2037337;28;20738;-79
2023/12/18 04:50:52;;;;;;;0.97;0.73;;;0.70;99.90;;;;;;2031282;28;20293;-81
2023/12/18 04:51:53;;;;;;;0.57;0.57;;;0.70;99.90;;;;;;2037543;29;20745;-81
2023/12/18 04:52:53;;;;;;;0.40;0.40;;;0.70;99.90;;;;;;2048358;28;20256;-81
2023/12/18 04:53:55;;;;;;;0.47;0.40;;;0.70;99.90;;;;;;2056470;28;20228;-81
2023/12/18 04:54:56;;;;;;;0.43;0.43;;;0.70;99.90;;;;;;2045019;28;20681;-81
2023/12/18 04:55:56;;;;;;;0.40;0.40;;;0.80;99.90;;;;;;2033115;29;20248;-80
2023/12/18 04:56:58;;;;;;;0.50;0.50;;;0.80;99.90;;;;;;2033213;28;20259;-81
2023/12/18 04:57:58;;;;;;;0.47;0.40;;;0.80;99.90;;;;;;2038750;29;20327;-81
2023/12/18 04:58:59;;;;;;;0.40;0.40;;;0.70;99.90;;;;;;2039506;29;20654;-81
2023/12/18 05:00:00;;;;;;;0.40;0.40;;;0.70;99.90;;;;;;2038354;29;20224;-80
2023/12/18 05:01:04;;;;;;;0.40;0.40;;;0.80;99.90;;;;;;2080250;28;20236;-81
2023/12/18 05:02:04;;;;;;;0.63;0.50;;;0.70;99.90;;;;;;2077323;28;20316;-82
2023/12/18 05:03:05;;;;;;;0.93;0.40;;;0.70;99.90;;;;;;2036431;28;20197;-81
2023/12/18 05:04:06;;;;;;;0.40;0.30;;;0.70;99.90;;;;;;2030981;29;20663;-81
2023/12/18 05:05:07;;;;;;;0.43;0.43;;;0.70;99.90;;;;;;2037418;29;20185;-81
2023/12/18 05:06:28;;;;;;;0.40;0.30;;;0.70;99.90;;;;;;2038090;29;20209;-81
2023/12/18 05:07:29;;;;;;;0.30;0.30;;;0.70;99.90;;;;;;2044571;29;20474;-81
2023/12/18 05:08:29;;;;;;;0.60;0.60;;;0.70;99.90;;;;;;2035690;29;20311;-81
2023/12/18 05:09:30;;;;;;;0.67;0.67;;;0.70;99.90;;;;;;2038633;29;20228;-81
2023/12/18 05:10:31;;;;;;;0.30;0.30;;;0.60;99.90;;;;;;2038758;29;20232;-82
2023/12/18 05:11:31;;;;;;;0.30;0.30;;;0.70;99.90;;;;;;2030932;29;20236;-81
2023/12/18 05:12:32;;;;;;;0.40;0.40;;;0.70;99.90;;;;;;2033053;28;20236;-81
2023/12/18 05:13:33;;;;;;;0.37;0.37;;;0.70;99.90;;;;;;2073827;28;20230;-81
2023/12/18 05:14:33;;;;;;;0.30;0.30;;;0.70;99.90;;;;;;2063034;28;20238;-81
2023/12/18 05:15:34;;;;;;;0.77;0.50;;;0.70;99.90;;;;;;2037492;29;20236;-81
2023/12/18 05:16:35;;;;;;;0.50;0.50;;;0.70;99.90;;;;;;2045293;28;20236;-80
2023/12/18 05:17:35;;;;;;;0.30;0.30;;;0.80;99.90;;;;;;2030130;29;20236;-81
2023/12/18 05:18:37;;;;;;;0.80;0.47;;;0.80;99.90;;;;;;2029778;29;20237;-81
2023/12/18 05:19:37;;;;;;;0.40;0.40;;;0.80;99.90;;;;;;2037881;28;20236;-81
2023/12/18 05:20:39;;;;;;;0.30;0.30;;;0.90;99.90;;;;;;2044012;28;20366;-80
2023/12/18 05:21:39;;;;;;;0.40;0.40;;;0.90;99.90;;;;;;2037292;29;20307;-81